sensor_id;sensor_type;location;lat;lon;timestamp;temperature;humidity
4306;DHT22;2166;49.926;8.608;2024-03-06T00:01:17;5.40;53.50
4306;DHT22;2166;49.926;8.608;2024-03-06T00:03:45;5.40;53.10
4306;DHT22;2166;49.926;8.608;2024-03-06T00:06:13;5.40;53.10
4306;DHT22;2166;49.926;8.608;2024-03-06T00:08:42;5.40;52.70
4306;DHT22;2166;49.926;8.608;2024-03-06T00:11:11;5.30;52.30
4306;DHT22;2166;49.926;8.608;2024-03-06T00:13:40;5.40;52.00
4306;DHT22;2166;49.926;8.608;2024-03-06T00:16:08;5.30;51.50
4306;DHT22;2166;49.926;8.608;2024-03-06T00:18:36;5.30;51.20
4306;DHT22;2166;49.926;8.608;2024-03-06T00:21:05;5.30;50.90
4306;DHT22;2166;49.926;8.608;2024-03-06T00:23:33;5.30;51.10
4306;DHT22;2166;49.926;8.608;2024-03-06T00:26:02;5.30;51.30
4306;DHT22;2166;49.926;8.608;2024-03-06T00:28:32;5.20;51.80
4306;DHT22;2166;49.926;8.608;2024-03-06T00:31:00;5.20;52.20
4306;DHT22;2166;49.926;8.608;2024-03-06T00:33:29;5.20;52.40
4306;DHT22;2166;49.926;8.608;2024-03-06T00:35:57;5.10;52.40
4306;DHT22;2166;49.926;8.608;2024-03-06T00:38:25;5.10;52.60
4306;DHT22;2166;49.926;8.608;2024-03-06T00:40:53;5.10;52.10
4306;DHT22;2166;49.926;8.608;2024-03-06T00:43:24;5.10;51.90
4306;DHT22;2166;49.926;8.608;2024-03-06T00:45:53;5.00;52.40
4306;DHT22;2166;49.926;8.608;2024-03-06T00:48:22;5.00;52.70
4306;DHT22;2166;49.926;8.608;2024-03-06T00:50:50;5.00;53.00
4306;DHT22;2166;49.926;8.608;2024-03-06T00:53:18;4.90;53.40
4306;DHT22;2166;49.926;8.608;2024-03-06T00:55:46;4.80;53.10
4306;DHT22;2166;49.926;8.608;2024-03-06T00:58:14;4.80;52.80
4306;DHT22;2166;49.926;8.608;2024-03-06T01:00:43;4.80;52.00
4306;DHT22;2166;49.926;8.608;2024-03-06T01:03:12;4.80;51.60
4306;DHT22;2166;49.926;8.608;2024-03-06T01:05:40;4.80;51.30
4306;DHT22;2166;49.926;8.608;2024-03-06T01:08:09;4.70;51.10
4306;DHT22;2166;49.926;8.608;2024-03-06T01:10:37;4.70;50.70
4306;DHT22;2166;49.926;8.608;2024-03-06T01:13:06;4.70;50.60
4306;DHT22;2166;49.926;8.608;2024-03-06T01:15:37;4.70;50.60
4306;DHT22;2166;49.926;8.608;2024-03-06T01:18:06;4.60;50.80
4306;DHT22;2166;49.926;8.608;2024-03-06T01:20:37;4.60;50.50
4306;DHT22;2166;49.926;8.608;2024-03-06T01:23:06;4.60;50.60
4306;DHT22;2166;49.926;8.608;2024-03-06T01:25:34;4.60;50.60
4306;DHT22;2166;49.926;8.608;2024-03-06T01:28:03;4.60;50.60
4306;DHT22;2166;49.926;8.608;2024-03-06T01:30:31;4.70;50.80
4306;DHT22;2166;49.926;8.608;2024-03-06T01:33:00;4.60;51.20
4306;DHT22;2166;49.926;8.608;2024-03-06T01:35:28;4.60;51.30
4306;DHT22;2166;49.926;8.608;2024-03-06T01:37:58;4.60;51.60
4306;DHT22;2166;49.926;8.608;2024-03-06T01:40:28;4.50;52.10
4306;DHT22;2166;49.926;8.608;2024-03-06T01:42:57;4.50;51.40
4306;DHT22;2166;49.926;8.608;2024-03-06T01:45:25;4.50;52.00
4306;DHT22;2166;49.926;8.608;2024-03-06T01:47:53;4.50;51.30
4306;DHT22;2166;49.926;8.608;2024-03-06T01:50:21;4.50;51.70
4306;DHT22;2166;49.926;8.608;2024-03-06T01:52:51;4.40;52.40
4306;DHT22;2166;49.926;8.608;2024-03-06T01:55:21;4.40;52.50
4306;DHT22;2166;49.926;8.608;2024-03-06T01:57:49;4.40;52.50
4306;DHT22;2166;49.926;8.608;2024-03-06T02:00:18;4.30;52.80
4306;DHT22;2166;49.926;8.608;2024-03-06T02:02:46;4.30;52.10
4306;DHT22;2166;49.926;8.608;2024-03-06T02:05:14;4.20;52.70
4306;DHT22;2166;49.926;8.608;2024-03-06T02:07:43;4.20;52.80
4306;DHT22;2166;49.926;8.608;2024-03-06T02:10:12;4.10;53.00
4306;DHT22;2166;49.926;8.608;2024-03-06T02:12:43;4.10;52.70
4306;DHT22;2166;49.926;8.608;2024-03-06T02:15:12;4.10;52.60
4306;DHT22;2166;49.926;8.608;2024-03-06T02:17:41;4.10;52.50
4306;DHT22;2166;49.926;8.608;2024-03-06T02:20:11;4.00;52.90
4306;DHT22;2166;49.926;8.608;2024-03-06T02:22:43;4.00;52.30
4306;DHT22;2166;49.926;8.608;2024-03-06T02:25:12;4.10;51.50
4306;DHT22;2166;49.926;8.608;2024-03-06T02:27:42;4.20;51.90
4306;DHT22;2166;49.926;8.608;2024-03-06T02:30:12;4.10;52.80
4306;DHT22;2166;49.926;8.608;2024-03-06T02:32:40;4.00;53.10
4306;DHT22;2166;49.926;8.608;2024-03-06T02:35:10;4.00;53.60
4306;DHT22;2166;49.926;8.608;2024-03-06T02:37:43;3.90;53.90
4306;DHT22;2166;49.926;8.608;2024-03-06T02:40:12;3.80;54.50
4306;DHT22;2166;49.926;8.608;2024-03-06T02:42:40;3.80;53.80
4306;DHT22;2166;49.926;8.608;2024-03-06T02:45:09;3.80;53.70
4306;DHT22;2166;49.926;8.608;2024-03-06T02:47:37;3.70;54.10
4306;DHT22;2166;49.926;8.608;2024-03-06T02:50:06;3.70;54.20
4306;DHT22;2166;49.926;8.608;2024-03-06T02:52:35;3.70;53.90
4306;DHT22;2166;49.926;8.608;2024-03-06T02:55:06;3.60;53.70
4306;DHT22;2166;49.926;8.608;2024-03-06T02:57:34;3.50;53.50
4306;DHT22;2166;49.926;8.608;2024-03-06T03:00:04;3.30;53.50
4306;DHT22;2166;49.926;8.608;2024-03-06T03:02:32;3.20;53.20
4306;DHT22;2166;49.926;8.608;2024-03-06T03:05:01;3.20;52.90
4306;DHT22;2166;49.926;8.608;2024-03-06T03:07:31;3.10;52.80
4306;DHT22;2166;49.926;8.608;2024-03-06T03:09:59;3.00;52.10
4306;DHT22;2166;49.926;8.608;2024-03-06T03:12:29;3.10;51.60
4306;DHT22;2166;49.926;8.608;2024-03-06T03:14:57;3.10;51.50
4306;DHT22;2166;49.926;8.608;2024-03-06T03:17:25;3.10;51.50
4306;DHT22;2166;49.926;8.608;2024-03-06T03:19:53;3.10;51.10
4306;DHT22;2166;49.926;8.608;2024-03-06T03:22:22;3.20;50.70
4306;DHT22;2166;49.926;8.608;2024-03-06T03:24:50;3.20;50.70
4306;DHT22;2166;49.926;8.608;2024-03-06T03:27:18;3.40;49.90
4306;DHT22;2166;49.926;8.608;2024-03-06T03:29:48;3.40;50.00
4306;DHT22;2166;49.926;8.608;2024-03-06T03:32:16;3.50;49.70
4306;DHT22;2166;49.926;8.608;2024-03-06T03:34:44;3.50;50.20
4306;DHT22;2166;49.926;8.608;2024-03-06T03:37:13;3.50;50.20
4306;DHT22;2166;49.926;8.608;2024-03-06T03:39:43;3.50;50.60
4306;DHT22;2166;49.926;8.608;2024-03-06T03:42:11;3.50;50.50
4306;DHT22;2166;49.926;8.608;2024-03-06T03:44:39;3.50;50.90
4306;DHT22;2166;49.926;8.608;2024-03-06T03:47:09;3.40;51.10
4306;DHT22;2166;49.926;8.608;2024-03-06T03:49:37;3.40;51.50
4306;DHT22;2166;49.926;8.608;2024-03-06T03:52:06;3.50;50.90
4306;DHT22;2166;49.926;8.608;2024-03-06T03:54:34;3.50;51.50
4306;DHT22;2166;49.926;8.608;2024-03-06T03:57:03;3.40;52.30
4306;DHT22;2166;49.926;8.608;2024-03-06T03:59:31;3.40;52.80
4306;DHT22;2166;49.926;8.608;2024-03-06T04:01:59;3.30;53.10
4306;DHT22;2166;49.926;8.608;2024-03-06T04:04:28;3.30;52.80
4306;DHT22;2166;49.926;8.608;2024-03-06T04:06:56;3.20;53.40
4306;DHT22;2166;49.926;8.608;2024-03-06T04:09:26;3.10;53.20
4306;DHT22;2166;49.926;8.608;2024-03-06T04:11:54;3.00;52.40
4306;DHT22;2166;49.926;8.608;2024-03-06T04:14:22;3.00;52.20
4306;DHT22;2166;49.926;8.608;2024-03-06T04:16:51;3.00;51.70
4306;DHT22;2166;49.926;8.608;2024-03-06T04:19:19;3.00;51.30
4306;DHT22;2166;49.926;8.608;2024-03-06T04:21:49;3.00;51.10
4306;DHT22;2166;49.926;8.608;2024-03-06T04:24:17;3.10;51.10
4306;DHT22;2166;49.926;8.608;2024-03-06T04:26:45;3.00;51.60
4306;DHT22;2166;49.926;8.608;2024-03-06T04:29:13;3.10;51.70
4306;DHT22;2166;49.926;8.608;2024-03-06T04:31:42;3.00;52.20
4306;DHT22;2166;49.926;8.608;2024-03-06T04:34:11;3.00;52.10
4306;DHT22;2166;49.926;8.608;2024-03-06T04:36:39;3.00;52.00
4306;DHT22;2166;49.926;8.608;2024-03-06T04:39:08;3.10;51.70
4306;DHT22;2166;49.926;8.608;2024-03-06T04:41:37;3.10;51.60
4306;DHT22;2166;49.926;8.608;2024-03-06T04:44:05;3.10;51.90
4306;DHT22;2166;49.926;8.608;2024-03-06T04:46:33;3.00;52.40
4306;DHT22;2166;49.926;8.608;2024-03-06T04:49:02;2.90;52.00
4306;DHT22;2166;49.926;8.608;2024-03-06T04:51:30;3.00;51.50
4306;DHT22;2166;49.926;8.608;2024-03-06T04:53:58;3.00;51.70
4306;DHT22;2166;49.926;8.608;2024-03-06T04:56:28;2.90;52.50
4306;DHT22;2166;49.926;8.608;2024-03-06T04:58:56;2.80;53.00
4306;DHT22;2166;49.926;8.608;2024-03-06T05:01:30;2.70;52.60
4306;DHT22;2166;49.926;8.608;2024-03-06T05:03:58;2.60;52.80
4306;DHT22;2166;49.926;8.608;2024-03-06T05:06:45;2.60;52.30
4306;DHT22;2166;49.926;8.608;2024-03-06T05:09:31;2.70;51.00
4306;DHT22;2166;49.926;8.608;2024-03-06T05:12:18;2.80;50.30
4306;DHT22;2166;49.926;8.608;2024-03-06T05:15:05;2.90;50.40
4306;DHT22;2166;49.926;8.608;2024-03-06T05:17:51;2.90;50.60
4306;DHT22;2166;49.926;8.608;2024-03-06T05:20:37;2.90;50.50
4306;DHT22;2166;49.926;8.608;2024-03-06T05:23:22;3.00;50.30
4306;DHT22;2166;49.926;8.608;2024-03-06T05:26:08;3.10;50.40
4306;DHT22;2166;49.926;8.608;2024-03-06T05:28:56;3.20;50.70
4306;DHT22;2166;49.926;8.608;2024-03-06T05:31:41;3.30;50.80
4306;DHT22;2166;49.926;8.608;2024-03-06T05:34:27;3.30;51.50
4306;DHT22;2166;49.926;8.608;2024-03-06T05:37:14;3.30;52.00
4306;DHT22;2166;49.926;8.608;2024-03-06T05:40:00;3.20;52.30
4306;DHT22;2166;49.926;8.608;2024-03-06T05:42:45;3.10;52.80
4306;DHT22;2166;49.926;8.608;2024-03-06T05:45:32;3.10;52.10
4306;DHT22;2166;49.926;8.608;2024-03-06T05:48:18;3.10;51.60
4306;DHT22;2166;49.926;8.608;2024-03-06T05:51:04;3.20;51.70
4306;DHT22;2166;49.926;8.608;2024-03-06T05:53:50;3.20;51.10
4306;DHT22;2166;49.926;8.608;2024-03-06T05:56:37;3.30;50.70
4306;DHT22;2166;49.926;8.608;2024-03-06T05:59:23;3.40;50.60
4306;DHT22;2166;49.926;8.608;2024-03-06T06:01:53;3.50;51.10
4306;DHT22;2166;49.926;8.608;2024-03-06T06:04:21;3.60;51.30
4306;DHT22;2166;49.926;8.608;2024-03-06T06:06:50;3.60;51.00
4306;DHT22;2166;49.926;8.608;2024-03-06T06:09:18;3.70;50.60
4306;DHT22;2166;49.926;8.608;2024-03-06T06:11:47;3.80;50.40
4306;DHT22;2166;49.926;8.608;2024-03-06T06:14:17;3.90;50.20
4306;DHT22;2166;49.926;8.608;2024-03-06T06:16:45;4.10;49.90
4306;DHT22;2166;49.926;8.608;2024-03-06T06:19:15;4.20;49.60
4306;DHT22;2166;49.926;8.608;2024-03-06T06:21:43;4.40;49.50
4306;DHT22;2166;49.926;8.608;2024-03-06T06:24:12;4.50;49.50
4306;DHT22;2166;49.926;8.608;2024-03-06T06:26:40;4.70;49.30
4306;DHT22;2166;49.926;8.608;2024-03-06T06:29:09;4.80;49.50
4306;DHT22;2166;49.926;8.608;2024-03-06T06:31:37;4.90;49.50
4306;DHT22;2166;49.926;8.608;2024-03-06T06:34:05;5.00;49.60
4306;DHT22;2166;49.926;8.608;2024-03-06T06:36:34;5.10;49.80
4306;DHT22;2166;49.926;8.608;2024-03-06T06:39:04;5.20;50.00
4306;DHT22;2166;49.926;8.608;2024-03-06T06:41:33;5.30;50.30
4306;DHT22;2166;49.926;8.608;2024-03-06T06:44:01;5.40;50.50
4306;DHT22;2166;49.926;8.608;2024-03-06T06:46:30;5.50;50.60
4306;DHT22;2166;49.926;8.608;2024-03-06T06:48:58;5.60;50.90
4306;DHT22;2166;49.926;8.608;2024-03-06T06:51:27;5.70;51.20
4306;DHT22;2166;49.926;8.608;2024-03-06T06:53:57;5.90;52.40
4306;DHT22;2166;49.926;8.608;2024-03-06T06:56:27;6.00;54.30
4306;DHT22;2166;49.926;8.608;2024-03-06T06:58:55;6.00;55.50
4306;DHT22;2166;49.926;8.608;2024-03-06T07:01:24;6.00;56.30
4306;DHT22;2166;49.926;8.608;2024-03-06T07:03:54;6.00;57.10
4306;DHT22;2166;49.926;8.608;2024-03-06T07:06:22;6.00;56.10
4306;DHT22;2166;49.926;8.608;2024-03-06T07:08:50;6.00;55.30
4306;DHT22;2166;49.926;8.608;2024-03-06T07:11:20;6.10;55.60
4306;DHT22;2166;49.926;8.608;2024-03-06T07:13:49;6.10;55.90
4306;DHT22;2166;49.926;8.608;2024-03-06T07:16:18;6.20;55.30
4306;DHT22;2166;49.926;8.608;2024-03-06T07:18:47;6.30;54.30
4306;DHT22;2166;49.926;8.608;2024-03-06T07:21:15;6.30;54.80
4306;DHT22;2166;49.926;8.608;2024-03-06T07:23:44;6.30;54.50
4306;DHT22;2166;49.926;8.608;2024-03-06T07:26:13;6.50;53.50
4306;DHT22;2166;49.926;8.608;2024-03-06T07:28:42;6.70;52.70
4306;DHT22;2166;49.926;8.608;2024-03-06T07:31:11;7.00;53.30
4306;DHT22;2166;49.926;8.608;2024-03-06T07:33:39;7.30;54.00
4306;DHT22;2166;49.926;8.608;2024-03-06T07:36:08;7.60;55.40
4306;DHT22;2166;49.926;8.608;2024-03-06T07:38:37;7.90;54.80
4306;DHT22;2166;49.926;8.608;2024-03-06T07:41:06;8.30;53.70
4306;DHT22;2166;49.926;8.608;2024-03-06T07:43:35;8.70;52.10
4306;DHT22;2166;49.926;8.608;2024-03-06T07:46:04;9.10;54.00
4306;DHT22;2166;49.926;8.608;2024-03-06T07:48:37;9.40;57.70
4306;DHT22;2166;49.926;8.608;2024-03-06T07:51:06;9.50;67.70
4306;DHT22;2166;49.926;8.608;2024-03-06T07:53:35;9.70;65.60
4306;DHT22;2166;49.926;8.608;2024-03-06T07:56:04;9.90;63.50
4306;DHT22;2166;49.926;8.608;2024-03-06T07:58:32;10.40;68.40
4306;DHT22;2166;49.926;8.608;2024-03-06T08:01:01;10.70;69.20
4306;DHT22;2166;49.926;8.608;2024-03-06T08:03:30;11.50;69.70
4306;DHT22;2166;49.926;8.608;2024-03-06T08:05:59;12.40;78.10
4306;DHT22;2166;49.926;8.608;2024-03-06T08:08:27;13.20;76.60
4306;DHT22;2166;49.926;8.608;2024-03-06T08:10:56;13.70;76.00
4306;DHT22;2166;49.926;8.608;2024-03-06T08:13:24;14.00;76.60
4306;DHT22;2166;49.926;8.608;2024-03-06T08:15:53;14.00;77.50
4306;DHT22;2166;49.926;8.608;2024-03-06T08:18:21;14.00;78.40
4306;DHT22;2166;49.926;8.608;2024-03-06T08:20:51;14.00;78.80
4306;DHT22;2166;49.926;8.608;2024-03-06T08:23:20;14.10;77.90
4306;DHT22;2166;49.926;8.608;2024-03-06T08:25:48;14.10;77.30
4306;DHT22;2166;49.926;8.608;2024-03-06T08:28:17;14.00;77.80
4306;DHT22;2166;49.926;8.608;2024-03-06T08:30:45;14.00;77.70
4306;DHT22;2166;49.926;8.608;2024-03-06T08:33:14;14.00;78.20
4306;DHT22;2166;49.926;8.608;2024-03-06T08:35:45;14.00;77.60
4306;DHT22;2166;49.926;8.608;2024-03-06T08:38:15;14.10;77.40
4306;DHT22;2166;49.926;8.608;2024-03-06T08:40:44;14.30;76.60
4306;DHT22;2166;49.926;8.608;2024-03-06T08:43:13;14.40;77.20
4306;DHT22;2166;49.926;8.608;2024-03-06T08:45:42;14.60;77.50
4306;DHT22;2166;49.926;8.608;2024-03-06T08:48:11;14.70;77.20
4306;DHT22;2166;49.926;8.608;2024-03-06T08:50:39;14.90;76.20
4306;DHT22;2166;49.926;8.608;2024-03-06T08:53:07;15.10;75.70
4306;DHT22;2166;49.926;8.608;2024-03-06T08:55:38;15.20;75.30
4306;DHT22;2166;49.926;8.608;2024-03-06T08:58:06;15.10;75.20
4306;DHT22;2166;49.926;8.608;2024-03-06T09:00:36;15.10;75.20
4306;DHT22;2166;49.926;8.608;2024-03-06T09:03:04;15.30;73.60
4306;DHT22;2166;49.926;8.608;2024-03-06T09:05:33;15.40;75.50
4306;DHT22;2166;49.926;8.608;2024-03-06T09:08:01;15.40;75.70
4306;DHT22;2166;49.926;8.608;2024-03-06T09:10:33;15.50;74.10
4306;DHT22;2166;49.926;8.608;2024-03-06T09:13:03;15.70;73.60
4306;DHT22;2166;49.926;8.608;2024-03-06T09:15:32;15.90;71.80
4306;DHT22;2166;49.926;8.608;2024-03-06T09:18:00;16.10;72.30
4306;DHT22;2166;49.926;8.608;2024-03-06T09:20:30;16.30;72.50
4306;DHT22;2166;49.926;8.608;2024-03-06T09:22:59;16.40;71.70
4306;DHT22;2166;49.926;8.608;2024-03-06T09:25:27;16.60;71.40
4306;DHT22;2166;49.926;8.608;2024-03-06T09:27:57;16.70;70.30
4306;DHT22;2166;49.926;8.608;2024-03-06T09:30:28;16.70;70.50
4306;DHT22;2166;49.926;8.608;2024-03-06T09:32:57;17.00;70.10
4306;DHT22;2166;49.926;8.608;2024-03-06T09:35:26;16.90;69.00
4306;DHT22;2166;49.926;8.608;2024-03-06T09:37:54;16.80;69.80
4306;DHT22;2166;49.926;8.608;2024-03-06T09:40:25;16.80;68.30
4306;DHT22;2166;49.926;8.608;2024-03-06T09:42:53;16.70;71.10
4306;DHT22;2166;49.926;8.608;2024-03-06T09:45:21;17.00;69.40
4306;DHT22;2166;49.926;8.608;2024-03-06T09:47:52;17.30;69.10
4306;DHT22;2166;49.926;8.608;2024-03-06T09:50:23;17.50;67.60
4306;DHT22;2166;49.926;8.608;2024-03-06T09:52:55;17.70;66.90
4306;DHT22;2166;49.926;8.608;2024-03-06T09:55:25;17.70;67.40
4306;DHT22;2166;49.926;8.608;2024-03-06T09:57:54;18.00;66.50
4306;DHT22;2166;49.926;8.608;2024-03-06T10:00:22;18.10;65.40
4306;DHT22;2166;49.926;8.608;2024-03-06T10:02:57;18.30;65.50
4306;DHT22;2166;49.926;8.608;2024-03-06T10:05:27;18.80;63.80
4306;DHT22;2166;49.926;8.608;2024-03-06T10:07:58;19.00;63.20
4306;DHT22;2166;49.926;8.608;2024-03-06T10:10:27;19.60;61.40
4306;DHT22;2166;49.926;8.608;2024-03-06T10:12:55;20.00;60.60
4306;DHT22;2166;49.926;8.608;2024-03-06T10:15:24;20.50;59.10
4306;DHT22;2166;49.926;8.608;2024-03-06T10:18:10;21.00;58.60
4306;DHT22;2166;49.926;8.608;2024-03-06T10:20:40;21.80;56.00
4306;DHT22;2166;49.926;8.608;2024-03-06T10:23:11;22.30;55.10
4306;DHT22;2166;49.926;8.608;2024-03-06T10:25:43;22.80;52.90
4306;DHT22;2166;49.926;8.608;2024-03-06T10:28:12;22.90;52.90
4306;DHT22;2166;49.926;8.608;2024-03-06T10:30:41;23.10;52.20
4306;DHT22;2166;49.926;8.608;2024-03-06T10:33:12;23.20;51.70
4306;DHT22;2166;49.926;8.608;2024-03-06T10:35:44;23.20;51.50
4306;DHT22;2166;49.926;8.608;2024-03-06T10:38:13;23.20;51.20
4306;DHT22;2166;49.926;8.608;2024-03-06T10:40:43;23.00;51.70
4306;DHT22;2166;49.926;8.608;2024-03-06T10:43:12;23.10;51.80
4306;DHT22;2166;49.926;8.608;2024-03-06T10:45:42;22.70;51.50
4306;DHT22;2166;49.926;8.608;2024-03-06T10:48:13;22.20;52.50
4306;DHT22;2166;49.926;8.608;2024-03-06T10:50:44;21.40;53.20
4306;DHT22;2166;49.926;8.608;2024-03-06T10:53:14;21.10;53.80
4306;DHT22;2166;49.926;8.608;2024-03-06T10:55:50;21.00;54.70
4306;DHT22;2166;49.926;8.608;2024-03-06T10:58:19;20.80;54.50
4306;DHT22;2166;49.926;8.608;2024-03-06T11:00:48;20.50;55.30
4306;DHT22;2166;49.926;8.608;2024-03-06T11:03:17;19.90;55.20
4306;DHT22;2166;49.926;8.608;2024-03-06T11:05:47;19.50;55.90
4306;DHT22;2166;49.926;8.608;2024-03-06T11:08:19;19.20;57.40
4306;DHT22;2166;49.926;8.608;2024-03-06T11:10:48;19.00;58.10
4306;DHT22;2166;49.926;8.608;2024-03-06T11:13:24;18.70;58.00
4306;DHT22;2166;49.926;8.608;2024-03-06T11:15:57;18.40;58.60
4306;DHT22;2166;49.926;8.608;2024-03-06T11:18:43;18.40;58.80
4306;DHT22;2166;49.926;8.608;2024-03-06T11:21:33;18.60;58.40
4306;DHT22;2166;49.926;8.608;2024-03-06T11:24:15;18.60;58.10
4306;DHT22;2166;49.926;8.608;2024-03-06T11:26:46;18.90;58.20
4306;DHT22;2166;49.926;8.608;2024-03-06T11:29:19;19.00;58.40
4306;DHT22;2166;49.926;8.608;2024-03-06T11:32:01;19.40;57.90
4306;DHT22;2166;49.926;8.608;2024-03-06T11:34:32;19.50;56.80
4306;DHT22;2166;49.926;8.608;2024-03-06T11:37:04;19.30;56.40
4306;DHT22;2166;49.926;8.608;2024-03-06T11:39:34;19.30;56.30
4306;DHT22;2166;49.926;8.608;2024-03-06T11:42:04;19.80;54.60
4306;DHT22;2166;49.926;8.608;2024-03-06T11:44:35;20.20;54.90
4306;DHT22;2166;49.926;8.608;2024-03-06T11:47:05;21.20;53.40
4306;DHT22;2166;49.926;8.608;2024-03-06T11:49:37;21.90;50.80
4306;DHT22;2166;49.926;8.608;2024-03-06T11:52:06;22.10;50.20
4306;DHT22;2166;49.926;8.608;2024-03-06T11:54:37;22.50;49.80
4306;DHT22;2166;49.926;8.608;2024-03-06T11:57:06;22.50;49.40
4306;DHT22;2166;49.926;8.608;2024-03-06T11:59:35;22.70;49.40
4306;DHT22;2166;49.926;8.608;2024-03-06T12:02:06;23.40;48.60
4306;DHT22;2166;49.926;8.608;2024-03-06T12:04:38;23.80;47.80
4306;DHT22;2166;49.926;8.608;2024-03-06T12:07:08;23.70;47.20
4306;DHT22;2166;49.926;8.608;2024-03-06T12:09:38;23.30;47.90
4306;DHT22;2166;49.926;8.608;2024-03-06T12:12:09;23.00;48.00
4306;DHT22;2166;49.926;8.608;2024-03-06T12:14:39;23.10;47.70
4306;DHT22;2166;49.926;8.608;2024-03-06T12:17:12;23.30;48.20
4306;DHT22;2166;49.926;8.608;2024-03-06T12:19:44;24.40;45.40
4306;DHT22;2166;49.926;8.608;2024-03-06T12:22:13;25.40;43.80
4306;DHT22;2166;49.926;8.608;2024-03-06T12:24:42;26.40;41.80
4306;DHT22;2166;49.926;8.608;2024-03-06T12:27:11;26.80;41.80
4306;DHT22;2166;49.926;8.608;2024-03-06T12:29:40;26.20;42.30
4306;DHT22;2166;49.926;8.608;2024-03-06T12:32:19;25.50;43.20
4306;DHT22;2166;49.926;8.608;2024-03-06T12:34:59;25.30;44.20
4306;DHT22;2166;49.926;8.608;2024-03-06T12:37:32;25.30;44.00
4306;DHT22;2166;49.926;8.608;2024-03-06T12:40:03;24.70;44.40
4306;DHT22;2166;49.926;8.608;2024-03-06T12:42:32;24.50;44.90
4306;DHT22;2166;49.926;8.608;2024-03-06T12:45:01;24.40;46.00
4306;DHT22;2166;49.926;8.608;2024-03-06T12:47:30;24.00;46.10
4306;DHT22;2166;49.926;8.608;2024-03-06T12:50:00;23.30;47.10
4306;DHT22;2166;49.926;8.608;2024-03-06T12:52:28;22.40;48.10
4306;DHT22;2166;49.926;8.608;2024-03-06T12:54:57;21.70;49.30
4306;DHT22;2166;49.926;8.608;2024-03-06T12:57:25;21.10;50.00
4306;DHT22;2166;49.926;8.608;2024-03-06T12:59:54;20.80;50.70
4306;DHT22;2166;49.926;8.608;2024-03-06T13:02:22;20.10;52.30
4306;DHT22;2166;49.926;8.608;2024-03-06T13:04:51;19.60;52.70
4306;DHT22;2166;49.926;8.608;2024-03-06T13:07:21;19.30;53.80
4306;DHT22;2166;49.926;8.608;2024-03-06T13:09:49;19.00;55.00
4306;DHT22;2166;49.926;8.608;2024-03-06T13:12:18;18.80;55.60
4306;DHT22;2166;49.926;8.608;2024-03-06T13:14:46;19.00;55.90
4306;DHT22;2166;49.926;8.608;2024-03-06T13:17:15;18.80;56.10
4306;DHT22;2166;49.926;8.608;2024-03-06T13:19:43;18.50;56.50
4306;DHT22;2166;49.926;8.608;2024-03-06T13:22:12;18.00;57.40
4306;DHT22;2166;49.926;8.608;2024-03-06T13:24:41;17.60;58.30
4306;DHT22;2166;49.926;8.608;2024-03-06T13:27:13;17.20;60.10
4306;DHT22;2166;49.926;8.608;2024-03-06T13:29:41;17.10;61.00
4306;DHT22;2166;49.926;8.608;2024-03-06T13:32:09;16.80;61.30
4306;DHT22;2166;49.926;8.608;2024-03-06T13:34:38;16.60;63.20
4306;DHT22;2166;49.926;8.608;2024-03-06T13:37:06;16.40;63.80
4306;DHT22;2166;49.926;8.608;2024-03-06T13:39:35;16.30;64.20
4306;DHT22;2166;49.926;8.608;2024-03-06T13:42:05;16.20;64.60
4306;DHT22;2166;49.926;8.608;2024-03-06T13:44:35;15.90;64.90
4306;DHT22;2166;49.926;8.608;2024-03-06T13:47:04;15.70;65.40
4306;DHT22;2166;49.926;8.608;2024-03-06T13:49:39;15.60;66.00
4306;DHT22;2166;49.926;8.608;2024-03-06T13:52:09;15.50;66.90
4306;DHT22;2166;49.926;8.608;2024-03-06T13:54:40;15.30;66.80
4306;DHT22;2166;49.926;8.608;2024-03-06T13:57:10;15.20;67.30
4306;DHT22;2166;49.926;8.608;2024-03-06T13:59:39;15.20;67.20
4306;DHT22;2166;49.926;8.608;2024-03-06T14:02:08;15.00;67.70
4306;DHT22;2166;49.926;8.608;2024-03-06T14:04:36;15.20;68.30
4306;DHT22;2166;49.926;8.608;2024-03-06T14:07:05;15.20;67.50
4306;DHT22;2166;49.926;8.608;2024-03-06T14:09:34;15.10;67.20
4306;DHT22;2166;49.926;8.608;2024-03-06T14:12:03;15.20;67.60
4306;DHT22;2166;49.926;8.608;2024-03-06T14:14:33;15.20;67.10
4306;DHT22;2166;49.926;8.608;2024-03-06T14:17:02;15.40;66.90
4306;DHT22;2166;49.926;8.608;2024-03-06T14:19:31;15.40;66.80
4306;DHT22;2166;49.926;8.608;2024-03-06T14:22:00;15.30;66.30
4306;DHT22;2166;49.926;8.608;2024-03-06T14:24:31;15.40;66.90
4306;DHT22;2166;49.926;8.608;2024-03-06T14:27:00;15.40;66.80
4306;DHT22;2166;49.926;8.608;2024-03-06T14:29:29;15.30;66.80
4306;DHT22;2166;49.926;8.608;2024-03-06T14:31:58;15.20;67.20
4306;DHT22;2166;49.926;8.608;2024-03-06T14:34:26;15.40;66.80
4306;DHT22;2166;49.926;8.608;2024-03-06T14:36:55;15.40;66.40
4306;DHT22;2166;49.926;8.608;2024-03-06T14:39:23;15.20;66.00
4306;DHT22;2166;49.926;8.608;2024-03-06T14:41:53;15.10;66.30
4306;DHT22;2166;49.926;8.608;2024-03-06T14:44:21;15.00;66.90
4306;DHT22;2166;49.926;8.608;2024-03-06T14:46:50;14.60;67.30
4306;DHT22;2166;49.926;8.608;2024-03-06T14:49:19;14.60;68.70
4306;DHT22;2166;49.926;8.608;2024-03-06T14:51:48;14.50;69.20
4306;DHT22;2166;49.926;8.608;2024-03-06T14:54:17;14.60;69.40
4306;DHT22;2166;49.926;8.608;2024-03-06T14:56:46;14.50;69.20
4306;DHT22;2166;49.926;8.608;2024-03-06T14:59:15;14.60;68.40
4306;DHT22;2166;49.926;8.608;2024-03-06T15:01:43;14.70;68.00
4306;DHT22;2166;49.926;8.608;2024-03-06T15:04:12;14.70;68.00
4306;DHT22;2166;49.926;8.608;2024-03-06T15:06:42;14.70;68.20
4306;DHT22;2166;49.926;8.608;2024-03-06T15:09:10;14.40;68.80
4306;DHT22;2166;49.926;8.608;2024-03-06T15:11:40;14.40;68.70
4306;DHT22;2166;49.926;8.608;2024-03-06T15:14:09;14.30;69.10
4306;DHT22;2166;49.926;8.608;2024-03-06T15:16:37;14.30;69.30
4306;DHT22;2166;49.926;8.608;2024-03-06T15:19:07;14.30;69.90
4306;DHT22;2166;49.926;8.608;2024-03-06T15:21:35;14.20;68.70
4306;DHT22;2166;49.926;8.608;2024-03-06T15:24:05;14.10;69.20
4306;DHT22;2166;49.926;8.608;2024-03-06T15:26:35;14.00;70.20
4306;DHT22;2166;49.926;8.608;2024-03-06T15:29:04;14.00;70.20
4306;DHT22;2166;49.926;8.608;2024-03-06T15:31:33;13.80;71.00
4306;DHT22;2166;49.926;8.608;2024-03-06T15:34:02;13.60;72.20
4306;DHT22;2166;49.926;8.608;2024-03-06T15:36:30;13.30;73.50
4306;DHT22;2166;49.926;8.608;2024-03-06T15:38:58;13.10;74.40
4306;DHT22;2166;49.926;8.608;2024-03-06T15:41:28;13.00;75.10
4306;DHT22;2166;49.926;8.608;2024-03-06T15:43:56;12.90;76.00
4306;DHT22;2166;49.926;8.608;2024-03-06T15:46:25;12.80;76.20
4306;DHT22;2166;49.926;8.608;2024-03-06T15:48:53;12.70;76.40
4306;DHT22;2166;49.926;8.608;2024-03-06T15:51:22;12.70;76.40
4306;DHT22;2166;49.926;8.608;2024-03-06T15:53:51;12.60;77.20
4306;DHT22;2166;49.926;8.608;2024-03-06T15:56:20;12.60;77.30
4306;DHT22;2166;49.926;8.608;2024-03-06T15:58:50;12.50;77.70
4306;DHT22;2166;49.926;8.608;2024-03-06T16:01:18;12.50;77.90
4306;DHT22;2166;49.926;8.608;2024-03-06T16:03:47;12.40;77.90
4306;DHT22;2166;49.926;8.608;2024-03-06T16:06:20;12.20;78.10
4306;DHT22;2166;49.926;8.608;2024-03-06T16:08:57;12.20;78.50
4306;DHT22;2166;49.926;8.608;2024-03-06T16:11:28;12.10;78.80
4306;DHT22;2166;49.926;8.608;2024-03-06T16:13:58;12.20;78.90
4306;DHT22;2166;49.926;8.608;2024-03-06T16:16:27;12.20;79.00
4306;DHT22;2166;49.926;8.608;2024-03-06T16:18:56;12.20;79.00
4306;DHT22;2166;49.926;8.608;2024-03-06T16:21:24;12.20;79.00
4306;DHT22;2166;49.926;8.608;2024-03-06T16:23:53;12.20;78.90
4306;DHT22;2166;49.926;8.608;2024-03-06T16:26:21;12.20;79.10
4306;DHT22;2166;49.926;8.608;2024-03-06T16:28:49;12.10;79.20